createdAt,value
2023-08-29T00:00:23.890Z,486.0000
2023-08-29T00:01:26.085Z,484.0000
2023-08-29T00:02:28.257Z,485.0000
2023-08-29T00:03:30.390Z,483.0000
2023-08-29T00:04:32.558Z,483.0000
2023-08-29T00:05:34.763Z,487.0000
2023-08-29T00:06:36.977Z,485.0000
2023-08-29T00:07:39.123Z,488.0000
2023-08-29T00:08:41.266Z,487.0000
2023-08-29T00:09:43.409Z,484.0000
2023-08-29T00:10:45.559Z,484.0000
2023-08-29T00:11:47.772Z,482.0000
2023-08-29T00:12:49.995Z,483.0000
2023-08-29T00:13:52.106Z,482.0000
2023-08-29T00:14:54.276Z,482.0000
2023-08-29T00:15:56.525Z,479.0000
2023-08-29T00:16:58.623Z,476.0000
2023-08-29T00:17:58.729Z,476.0000
2023-08-29T00:19:00.785Z,476.0000
2023-08-29T00:20:00.812Z,479.0000
2023-08-29T00:21:02.990Z,481.0000
2023-08-29T00:22:05.184Z,480.0000
2023-08-29T00:23:07.393Z,481.0000
2023-08-29T00:24:09.560Z,481.0000
2023-08-29T00:25:11.758Z,479.0000
2023-08-29T00:26:13.957Z,480.0000
2023-08-29T00:27:16.128Z,479.0000
2023-08-29T00:28:18.352Z,476.0000
2023-08-29T00:29:20.479Z,473.0000
2023-08-29T00:30:22.647Z,472.0000
2023-08-29T00:31:24.836Z,473.0000
2023-08-29T00:32:27.033Z,476.0000
2023-08-29T00:33:29.183Z,478.0000
2023-08-29T00:34:31.315Z,477.0000
2023-08-29T00:35:33.490Z,478.0000
2023-08-29T00:36:35.676Z,478.0000
2023-08-29T00:37:37.843Z,480.0000
2023-08-29T00:38:40.025Z,477.0000
2023-08-29T00:39:42.161Z,480.0000
2023-08-29T00:40:44.350Z,481.0000
2023-08-29T00:41:46.507Z,481.0000
2023-08-29T00:42:48.686Z,480.0000
2023-08-29T00:43:50.815Z,479.0000
2023-08-29T00:44:52.989Z,475.0000
2023-08-29T00:45:55.201Z,478.0000
2023-08-29T00:46:57.314Z,480.0000
2023-08-29T00:47:59.475Z,481.0000
2023-08-29T00:49:01.637Z,481.0000
2023-08-29T00:50:03.769Z,481.0000
2023-08-29T00:51:03.817Z,482.0000
2023-08-29T00:52:05.982Z,482.0000
2023-08-29T00:53:08.188Z,482.0000
2023-08-29T00:54:10.411Z,479.0000
2023-08-29T00:55:12.527Z,481.0000
2023-08-29T00:56:14.688Z,481.0000
2023-08-29T00:57:16.884Z,480.0000
2023-08-29T00:58:19.101Z,482.0000
2023-08-29T00:59:21.317Z,479.0000
2023-08-29T01:00:23.451Z,479.0000
2023-08-29T01:01:25.673Z,478.0000
2023-08-29T01:02:27.834Z,477.0000
2023-08-29T01:03:30.158Z,476.0000
2023-08-29T01:04:32.267Z,477.0000
2023-08-29T01:05:34.371Z,479.0000
2023-08-29T01:06:36.516Z,476.0000
2023-08-29T01:07:38.649Z,478.0000
2023-08-29T01:08:40.793Z,477.0000
2023-08-29T01:09:42.986Z,474.0000
2023-08-29T01:10:45.122Z,478.0000
2023-08-29T01:11:47.297Z,478.0000
2023-08-29T01:12:49.461Z,477.0000
2023-08-29T01:13:51.652Z,478.0000
2023-08-29T01:14:53.894Z,479.0000
2023-08-29T01:15:56.132Z,482.0000
2023-08-29T01:16:58.308Z,479.0000
2023-08-29T01:17:58.458Z,477.0000
2023-08-29T01:19:00.578Z,475.0000
2023-08-29T01:20:02.829Z,475.0000
2023-08-29T01:21:04.954Z,476.0000
2023-08-29T01:22:07.186Z,474.0000
2023-08-29T01:23:14.705Z,473.0000
2023-08-29T01:24:11.576Z,472.0000
2023-08-29T01:25:13.816Z,473.0000
2023-08-29T01:26:16.036Z,476.0000
2023-08-29T01:27:18.254Z,479.0000
2023-08-29T01:28:20.497Z,481.0000
2023-08-29T01:29:22.747Z,479.0000
2023-08-29T01:30:25.021Z,478.0000
2023-08-29T01:31:27.266Z,479.0000
2023-08-29T01:32:27.333Z,477.0000
2023-08-29T01:33:29.562Z,477.0000
2023-08-29T01:34:31.818Z,477.0000
2023-08-29T01:35:34.036Z,475.0000
2023-08-29T01:36:36.249Z,476.0000
2023-08-29T01:37:38.483Z,477.0000
2023-08-29T01:38:40.738Z,477.0000
2023-08-29T01:39:42.972Z,477.0000
2023-08-29T01:40:45.289Z,477.0000
2023-08-29T01:41:47.509Z,475.0000
2023-08-29T01:42:47.643Z,474.0000
2023-08-29T01:43:49.885Z,477.0000
2023-08-29T01:44:52.149Z,481.0000
2023-08-29T01:45:54.419Z,479.0000
2023-08-29T01:46:56.601Z,480.0000
2023-08-29T01:47:58.792Z,477.0000
2023-08-29T01:49:00.949Z,477.0000
2023-08-29T01:50:03.156Z,477.0000
2023-08-29T01:51:05.335Z,474.0000
2023-08-29T01:52:06.393Z,472.0000
2023-08-29T01:53:07.629Z,471.0000
2023-08-29T01:54:09.817Z,471.0000
2023-08-29T01:55:12.053Z,470.0000
2023-08-29T01:56:14.329Z,470.0000
2023-08-29T01:57:14.414Z,471.0000
2023-08-29T01:58:16.672Z,472.0000
2023-08-29T01:59:18.903Z,474.0000
2023-08-29T02:00:21.175Z,471.0000
2023-08-29T02:01:24.288Z,473.0000
2023-08-29T02:02:25.660Z,471.0000
2023-08-29T02:03:27.877Z,473.0000
2023-08-29T02:04:30.224Z,469.0000
2023-08-29T02:05:32.422Z,468.0000
2023-08-29T02:06:34.677Z,469.0000
2023-08-29T02:07:34.761Z,468.0000
2023-08-29T02:08:36.986Z,465.0000
2023-08-29T02:09:39.222Z,466.0000
2023-08-29T02:10:41.429Z,465.0000
2023-08-29T02:11:43.645Z,464.0000
2023-08-29T02:12:45.896Z,465.0000
2023-08-29T02:13:46.977Z,469.0000
2023-08-29T02:14:49.167Z,472.0000
2023-08-29T02:15:50.406Z,470.0000
2023-08-29T02:16:52.710Z,468.0000
2023-08-29T02:17:54.962Z,469.0000
2023-08-29T02:18:56.997Z,468.0000
2023-08-29T02:19:59.249Z,466.0000
2023-08-29T02:20:59.340Z,464.0000
2023-08-29T02:22:01.581Z,465.0000
2023-08-29T02:23:03.817Z,463.0000
2023-08-29T02:24:06.072Z,463.0000
2023-08-29T02:25:08.298Z,467.0000
2023-08-29T02:26:10.577Z,463.0000
2023-08-29T02:27:12.898Z,464.0000
2023-08-29T02:28:15.146Z,465.0000
2023-08-29T02:29:17.382Z,463.0000
2023-08-29T02:30:17.442Z,466.0000
2023-08-29T02:31:19.660Z,468.0000
2023-08-29T02:32:21.877Z,466.0000
2023-08-29T02:33:23.954Z,467.0000
2023-08-29T02:34:26.105Z,468.0000
2023-08-29T02:35:28.333Z,469.0000
2023-08-29T02:36:30.519Z,469.0000
2023-08-29T02:37:32.755Z,468.0000
2023-08-29T02:38:34.947Z,466.0000
2023-08-29T02:39:37.110Z,464.0000
2023-08-29T02:40:39.265Z,462.0000
2023-08-29T02:41:41.393Z,461.0000
2023-08-29T02:42:43.642Z,463.0000
2023-08-29T02:43:45.824Z,462.0000
2023-08-29T02:44:48.053Z,464.0000
2023-08-29T02:45:50.282Z,466.0000
2023-08-29T02:46:52.597Z,467.0000
2023-08-29T02:47:54.842Z,466.0000
2023-08-29T02:48:54.928Z,469.0000
2023-08-29T02:49:57.132Z,470.0000
2023-08-29T02:50:59.408Z,473.0000
2023-08-29T02:52:01.662Z,474.0000
2023-08-29T02:53:03.924Z,474.0000
2023-08-29T02:54:06.146Z,473.0000
2023-08-29T02:55:08.391Z,475.0000
2023-08-29T02:56:10.621Z,475.0000
2023-08-29T02:57:47.284Z,461.0000
2023-08-29T02:58:49.397Z,464.0000
2023-08-29T02:59:51.466Z,466.0000
2023-08-29T03:00:53.641Z,464.0000
2023-08-29T03:01:55.750Z,464.0000
2023-08-29T03:02:58.119Z,462.0000
2023-08-29T03:04:00.298Z,463.0000
2023-08-29T03:05:02.280Z,461.0000
2023-08-29T03:06:04.457Z,461.0000
2023-08-29T03:07:06.679Z,460.0000
2023-08-29T03:08:09.200Z,458.0000
2023-08-29T03:09:11.150Z,455.0000
2023-08-29T03:10:13.326Z,454.0000
2023-08-29T03:11:13.415Z,455.0000
2023-08-29T03:12:15.590Z,455.0000
2023-08-29T03:13:17.818Z,453.0000
2023-08-29T03:14:20.067Z,456.0000
2023-08-29T03:15:22.253Z,456.0000
2023-08-29T03:16:24.461Z,455.0000
2023-08-29T03:17:26.818Z,454.0000
2023-08-29T03:18:28.905Z,453.0000
2023-08-29T03:19:31.172Z,452.0000
2023-08-29T03:20:33.341Z,451.0000
2023-08-29T03:21:35.518Z,450.0000
2023-08-29T03:22:37.649Z,450.0000
2023-08-29T03:23:39.824Z,451.0000
2023-08-29T03:24:41.999Z,451.0000
2023-08-29T03:25:44.144Z,450.0000
2023-08-29T03:26:46.308Z,453.0000
2023-08-29T03:27:48.524Z,455.0000
2023-08-29T03:28:50.680Z,454.0000
2023-08-29T03:29:52.845Z,455.0000
2023-08-29T03:30:55.046Z,458.0000
2023-08-29T03:31:57.199Z,459.0000
2023-08-29T03:32:57.277Z,464.0000
2023-08-29T03:33:59.481Z,462.0000
2023-08-29T03:35:01.771Z,463.0000
2023-08-29T03:36:03.845Z,460.0000
2023-08-29T03:37:06.038Z,458.0000
2023-08-29T03:38:08.548Z,459.0000
2023-08-29T03:39:10.429Z,460.0000
2023-08-29T03:40:12.644Z,461.0000
2023-08-29T03:41:14.828Z,463.0000
2023-08-29T03:42:17.018Z,462.0000
2023-08-29T03:43:19.208Z,462.0000
2023-08-29T03:44:21.411Z,462.0000
2023-08-29T03:45:23.621Z,462.0000
2023-08-29T03:46:25.812Z,460.0000
2023-08-29T03:47:27.963Z,458.0000
2023-08-29T03:48:30.182Z,461.0000
2023-08-29T03:49:32.375Z,462.0000
2023-08-29T03:50:34.619Z,457.0000
2023-08-29T03:51:36.766Z,459.0000
2023-08-29T03:52:36.833Z,462.0000
2023-08-29T03:53:39.038Z,463.0000
2023-08-29T03:54:41.313Z,466.0000
2023-08-29T03:55:43.496Z,467.0000
2023-08-29T03:56:45.676Z,468.0000
2023-08-29T03:57:47.884Z,465.0000
2023-08-29T03:58:50.139Z,467.0000
2023-08-29T03:59:52.334Z,468.0000
2023-08-29T04:00:54.558Z,469.0000
2023-08-29T04:01:56.755Z,469.0000
2023-08-29T04:02:58.984Z,468.0000
2023-08-29T04:05:25.036Z,453.0000
2023-08-29T04:06:27.107Z,454.0000
2023-08-29T04:07:29.254Z,462.0000
2023-08-29T04:08:31.518Z,463.0000
2023-08-29T04:09:33.639Z,467.0000
2023-08-29T04:10:33.699Z,467.0000
2023-08-29T04:11:35.914Z,467.0000
2023-08-29T04:12:38.100Z,468.0000
2023-08-29T04:13:40.312Z,467.0000
2023-08-29T04:14:42.548Z,468.0000
2023-08-29T04:15:44.758Z,470.0000
2023-08-29T04:16:48.583Z,478.0000
2023-08-29T04:17:49.267Z,480.0000
2023-08-29T04:18:54.388Z,482.0000
2023-08-29T04:19:53.622Z,486.0000
2023-08-29T04:20:55.862Z,485.0000
2023-08-29T04:21:58.008Z,486.0000
2023-08-29T04:23:00.161Z,494.0000
2023-08-29T04:24:02.257Z,489.0000
2023-08-29T04:25:03.333Z,493.0000
2023-08-29T04:26:05.490Z,492.0000
2023-08-29T04:27:06.700Z,496.0000
2023-08-29T04:28:09.108Z,500.0000
2023-08-29T04:29:11.076Z,500.0000
2023-08-29T04:30:13.272Z,501.0000
2023-08-29T04:31:15.541Z,504.0000
2023-08-29T04:32:17.727Z,516.0000
2023-08-29T04:33:19.965Z,513.0000
2023-08-29T04:34:22.122Z,512.0000
2023-08-29T04:35:24.330Z,515.0000
2023-08-29T04:36:24.520Z,515.0000
2023-08-29T04:37:26.682Z,515.0000
2023-08-29T04:38:28.838Z,521.0000
2023-08-29T04:39:31.015Z,526.0000
2023-08-29T04:40:33.196Z,530.0000
2023-08-29T04:41:35.454Z,530.0000
2023-08-29T04:42:37.702Z,532.0000
2023-08-29T04:43:39.908Z,532.0000
2023-08-29T04:44:43.825Z,531.0000
2023-08-29T04:45:44.342Z,531.0000
2023-08-29T04:46:46.521Z,536.0000
2023-08-29T04:47:48.811Z,534.0000
2023-08-29T04:48:50.953Z,536.0000
2023-08-29T04:49:53.154Z,533.0000
2023-08-29T04:50:55.352Z,533.0000
2023-08-29T04:51:55.427Z,537.0000
2023-08-29T04:52:57.614Z,539.0000
2023-08-29T04:53:59.803Z,542.0000
2023-08-29T04:55:02.022Z,541.0000
2023-08-29T04:56:04.263Z,540.0000
2023-08-29T04:57:06.464Z,541.0000
2023-08-29T04:58:08.714Z,539.0000
2023-08-29T04:59:10.878Z,539.0000
2023-08-29T05:00:13.098Z,543.0000
2023-08-29T05:01:15.332Z,550.0000
2023-08-29T05:02:17.542Z,546.0000
2023-08-29T05:03:19.887Z,550.0000
2023-08-29T05:04:21.988Z,550.0000
2023-08-29T05:05:24.182Z,549.0000
2023-08-29T05:06:26.345Z,544.0000
2023-08-29T05:07:26.380Z,528.0000
2023-08-29T05:08:28.575Z,528.0000
2023-08-29T05:09:30.722Z,531.0000
2023-08-29T05:10:32.945Z,531.0000
2023-08-29T05:11:35.154Z,520.0000
2023-08-29T05:12:37.392Z,511.0000
2023-08-29T05:13:39.662Z,494.0000
2023-08-29T05:14:41.866Z,487.0000
2023-08-29T05:15:44.118Z,481.0000
2023-08-29T05:16:46.349Z,482.0000
2023-08-29T05:17:48.626Z,501.0000
2023-08-29T05:18:50.772Z,509.0000
2023-08-29T05:19:52.978Z,518.0000
2023-08-29T05:20:56.058Z,525.0000
2023-08-29T05:21:55.328Z,529.0000
2023-08-29T05:22:57.610Z,534.0000
2023-08-29T05:23:59.867Z,536.0000
2023-08-29T05:25:02.087Z,534.0000
2023-08-29T05:26:04.336Z,534.0000
2023-08-29T05:27:06.575Z,531.0000
2023-08-29T05:28:09.129Z,529.0000
2023-08-29T05:29:11.074Z,527.0000
2023-08-29T05:30:13.295Z,519.0000
2023-08-29T05:31:15.568Z,521.0000
2023-08-29T05:32:15.645Z,522.0000
2023-08-29T05:33:17.916Z,521.0000
2023-08-29T05:34:20.168Z,520.0000
2023-08-29T05:35:22.404Z,519.0000
2023-08-29T05:36:24.602Z,518.0000
2023-08-29T05:37:26.851Z,517.0000
2023-08-29T05:38:29.120Z,518.0000
2023-08-29T05:39:31.375Z,519.0000
2023-08-29T05:40:34.629Z,519.0000
2023-08-29T05:41:33.733Z,519.0000
2023-08-29T05:42:35.973Z,519.0000
2023-08-29T05:43:38.231Z,521.0000
2023-08-29T05:44:40.576Z,523.0000
2023-08-29T05:45:42.774Z,524.0000
2023-08-29T05:46:45.074Z,524.0000
2023-08-29T05:47:47.353Z,526.0000
2023-08-29T05:48:49.598Z,536.0000
2023-08-29T05:49:49.782Z,534.0000
2023-08-29T05:50:52.023Z,535.0000
2023-08-29T05:51:54.320Z,533.0000
2023-08-29T05:52:56.592Z,530.0000
2023-08-29T05:53:58.894Z,531.0000
2023-08-29T05:55:01.160Z,529.0000
2023-08-29T05:56:03.430Z,532.0000
2023-08-29T05:57:05.682Z,536.0000
2023-08-29T05:58:06.002Z,537.0000
2023-08-29T05:59:08.100Z,538.0000
2023-08-29T06:00:10.440Z,537.0000
2023-08-29T06:01:12.710Z,538.0000
2023-08-29T06:02:14.952Z,535.0000
2023-08-29T06:03:17.202Z,536.0000
2023-08-29T06:04:19.406Z,535.0000
2023-08-29T06:05:21.662Z,533.0000
2023-08-29T06:06:23.880Z,531.0000
2023-08-29T06:07:23.918Z,531.0000
2023-08-29T06:08:26.251Z,531.0000
2023-08-29T06:09:28.304Z,528.0000
2023-08-29T06:10:30.472Z,529.0000
2023-08-29T06:11:32.614Z,529.0000
2023-08-29T06:12:34.812Z,532.0000
2023-08-29T06:13:36.975Z,529.0000
2023-08-29T06:14:39.162Z,532.0000
2023-08-29T06:15:41.363Z,534.0000
2023-08-29T06:16:43.681Z,537.0000
2023-08-29T06:17:45.876Z,537.0000
2023-08-29T06:18:48.041Z,539.0000
2023-08-29T06:19:50.221Z,539.0000
2023-08-29T06:20:53.111Z,540.0000
2023-08-29T06:21:54.608Z,538.0000
2023-08-29T06:22:56.836Z,520.0000
2023-08-29T06:23:59.131Z,513.0000
2023-08-29T06:24:59.250Z,514.0000
2023-08-29T06:26:01.519Z,516.0000
2023-08-29T06:27:03.769Z,524.0000
2023-08-29T06:28:06.211Z,537.0000
2023-08-29T06:29:08.216Z,540.0000
2023-08-29T06:30:10.441Z,545.0000
2023-08-29T06:31:12.756Z,544.0000
2023-08-29T06:32:14.962Z,543.0000
2023-08-29T06:33:17.192Z,544.0000
2023-08-29T06:34:19.393Z,543.0000
2023-08-29T06:35:19.477Z,540.0000
2023-08-29T06:36:21.734Z,538.0000
2023-08-29T06:37:23.947Z,535.0000
2023-08-29T06:38:26.163Z,533.0000
2023-08-29T06:39:28.394Z,535.0000
2023-08-29T06:40:30.655Z,536.0000
2023-08-29T06:41:32.827Z,538.0000
2023-08-29T06:42:35.048Z,540.0000
2023-08-29T06:43:37.231Z,540.0000
2023-08-29T06:44:39.411Z,542.0000
2023-08-29T06:45:41.621Z,540.0000
2023-08-29T06:46:43.927Z,537.0000
2023-08-29T06:47:44.970Z,538.0000
2023-08-29T06:48:44.972Z,538.0000
2023-08-29T06:49:46.255Z,537.0000
2023-08-29T06:50:48.326Z,535.0000
2023-08-29T06:51:50.534Z,534.0000
2023-08-29T06:52:52.712Z,533.0000
2023-08-29T06:53:54.925Z,535.0000
2023-08-29T06:54:57.133Z,536.0000
2023-08-29T06:55:59.404Z,537.0000
2023-08-29T06:57:01.641Z,538.0000
2023-08-29T06:58:04.254Z,537.0000
2023-08-29T06:59:04.002Z,534.0000
2023-08-29T07:00:06.221Z,530.0000
2023-08-29T07:01:06.421Z,529.0000
2023-08-29T07:02:08.557Z,524.0000
2023-08-29T07:03:10.840Z,525.0000
2023-08-29T07:04:13.037Z,522.0000
2023-08-29T07:05:15.284Z,523.0000
2023-08-29T07:06:17.553Z,522.0000
2023-08-29T07:07:19.793Z,519.0000
2023-08-29T07:08:22.077Z,520.0000
2023-08-29T07:09:24.231Z,521.0000
2023-08-29T07:10:24.359Z,523.0000
2023-08-29T07:11:26.665Z,526.0000
2023-08-29T07:12:28.889Z,524.0000
2023-08-29T07:13:31.181Z,521.0000
2023-08-29T07:14:33.419Z,521.0000
2023-08-29T07:15:35.661Z,521.0000
2023-08-29T07:16:37.972Z,519.0000
2023-08-29T07:17:42.289Z,520.0000
2023-08-29T07:18:40.352Z,517.0000
2023-08-29T07:19:42.546Z,514.0000
2023-08-29T07:20:44.799Z,512.0000
2023-08-29T07:21:47.091Z,514.0000
2023-08-29T07:22:49.321Z,514.0000
2023-08-29T07:23:51.578Z,515.0000
2023-08-29T07:24:53.818Z,517.0000
2023-08-29T07:25:56.067Z,517.0000
2023-08-29T07:26:58.281Z,516.0000
2023-08-29T07:27:58.371Z,514.0000
2023-08-29T07:29:00.647Z,516.0000
2023-08-29T07:30:02.836Z,517.0000
2023-08-29T07:31:05.106Z,517.0000
2023-08-29T07:32:07.258Z,510.0000
2023-08-29T07:33:09.589Z,510.0000
2023-08-29T07:34:11.779Z,506.0000
2023-08-29T07:35:13.960Z,506.0000
2023-08-29T07:36:16.207Z,508.0000
2023-08-29T07:37:18.413Z,503.0000
2023-08-29T07:38:20.651Z,501.0000
2023-08-29T07:39:23.653Z,499.0000
2023-08-29T07:40:25.118Z,502.0000
2023-08-29T07:41:25.208Z,504.0000
2023-08-29T07:42:27.509Z,505.0000
2023-08-29T07:43:29.711Z,504.0000
2023-08-29T07:44:32.015Z,503.0000
2023-08-29T07:45:34.186Z,502.0000
2023-08-29T07:46:36.455Z,503.0000
2023-08-29T07:47:38.688Z,506.0000
2023-08-29T07:48:40.912Z,505.0000
2023-08-29T07:49:43.160Z,500.0000
2023-08-29T07:50:45.363Z,501.0000
2023-08-29T07:51:47.562Z,502.0000
2023-08-29T07:52:47.636Z,503.0000
2023-08-29T07:53:49.890Z,504.0000
2023-08-29T07:54:52.057Z,500.0000
2023-08-29T07:55:54.260Z,500.0000
2023-08-29T07:56:56.495Z,499.0000
2023-08-29T07:57:58.663Z,498.0000
2023-08-29T07:59:00.849Z,498.0000
2023-08-29T08:00:03.052Z,494.0000
2023-08-29T08:01:05.264Z,499.0000
2023-08-29T08:02:07.457Z,491.0000
2023-08-29T08:03:09.675Z,493.0000
2023-08-29T08:04:11.932Z,491.0000
2023-08-29T08:05:14.094Z,489.0000
2023-08-29T08:06:16.227Z,489.0000
2023-08-29T08:07:18.438Z,490.0000
2023-08-29T08:08:20.646Z,489.0000
2023-08-29T08:09:20.692Z,498.0000
2023-08-29T08:10:22.907Z,489.0000
2023-08-29T08:11:25.129Z,487.0000
2023-08-29T08:12:27.371Z,488.0000
2023-08-29T08:13:29.704Z,482.0000
2023-08-29T08:14:31.841Z,482.0000
2023-08-29T08:15:34.127Z,483.0000
2023-08-29T08:16:36.299Z,483.0000
2023-08-29T08:17:38.565Z,484.0000
2023-08-29T08:18:40.657Z,487.0000
2023-08-29T08:19:42.855Z,488.0000
2023-08-29T08:20:45.077Z,487.0000
2023-08-29T08:21:48.870Z,487.0000
2023-08-29T08:22:49.454Z,485.0000
2023-08-29T08:23:51.670Z,481.0000
2023-08-29T08:24:51.714Z,485.0000
2023-08-29T08:25:53.945Z,487.0000
2023-08-29T08:26:56.110Z,488.0000
2023-08-29T08:28:00.150Z,485.0000
2023-08-29T08:29:00.555Z,482.0000
2023-08-29T08:30:02.750Z,485.0000
2023-08-29T08:31:05.023Z,483.0000
2023-08-29T08:32:07.255Z,481.0000
2023-08-29T08:33:09.497Z,485.0000
2023-08-29T08:34:11.664Z,488.0000
2023-08-29T08:35:13.873Z,489.0000
2023-08-29T08:36:16.089Z,487.0000
2023-08-29T08:37:18.269Z,489.0000
2023-08-29T08:38:20.481Z,483.0000
2023-08-29T08:39:20.647Z,482.0000
2023-08-29T08:40:22.847Z,482.0000
2023-08-29T08:41:25.113Z,482.0000
2023-08-29T08:42:27.275Z,480.0000
2023-08-29T08:43:29.432Z,479.0000
2023-08-29T08:44:31.714Z,483.0000
2023-08-29T08:45:33.789Z,483.0000
2023-08-29T08:46:36.004Z,484.0000
2023-08-29T08:47:38.154Z,484.0000
2023-08-29T08:48:40.303Z,488.0000
2023-08-29T08:49:42.501Z,485.0000
2023-08-29T08:50:44.686Z,483.0000
2023-08-29T08:51:46.910Z,486.0000
2023-08-29T08:52:49.102Z,488.0000
2023-08-29T08:53:51.297Z,491.0000
2023-08-29T08:54:53.469Z,489.0000
2023-08-29T08:55:55.658Z,490.0000
2023-08-29T08:56:57.846Z,488.0000
2023-08-29T08:58:00.038Z,486.0000
2023-08-29T08:59:00.134Z,484.0000
2023-08-29T09:00:02.308Z,482.0000
2023-08-29T09:01:04.504Z,482.0000
2023-08-29T09:02:06.730Z,484.0000
2023-08-29T09:03:08.940Z,484.0000
2023-08-29T09:04:11.095Z,485.0000
2023-08-29T09:05:13.250Z,484.0000
2023-08-29T09:06:15.479Z,482.0000
2023-08-29T09:07:17.702Z,479.0000
2023-08-29T09:08:19.887Z,481.0000
2023-08-29T09:09:22.100Z,482.0000
2023-08-29T09:10:24.277Z,484.0000
2023-08-29T09:11:26.503Z,486.0000
2023-08-29T09:12:28.699Z,486.0000
2023-08-29T09:13:30.909Z,484.0000
2023-08-29T09:14:33.114Z,482.0000
2023-08-29T09:15:35.291Z,481.0000
2023-08-29T09:16:37.450Z,478.0000
2023-08-29T09:17:39.698Z,480.0000
2023-08-29T09:18:39.704Z,476.0000
2023-08-29T09:19:41.959Z,474.0000
2023-08-29T09:20:44.202Z,478.0000
2023-08-29T09:21:46.443Z,477.0000
2023-08-29T09:22:48.697Z,483.0000
2023-08-29T09:23:50.934Z,473.0000
2023-08-29T09:24:53.179Z,474.0000
2023-08-29T09:25:55.404Z,475.0000
2023-08-29T09:26:57.618Z,477.0000
2023-08-29T09:27:59.880Z,477.0000
2023-08-29T09:29:02.107Z,475.0000
2023-08-29T09:30:04.299Z,475.0000
2023-08-29T09:31:06.581Z,475.0000
2023-08-29T09:32:08.663Z,470.0000
2023-08-29T09:33:10.954Z,478.0000
2023-08-29T09:34:13.074Z,479.0000
2023-08-29T09:35:15.277Z,472.0000
2023-08-29T09:36:17.442Z,474.0000
2023-08-29T09:37:19.647Z,474.0000
2023-08-29T09:38:21.878Z,474.0000
2023-08-29T09:39:24.069Z,471.0000
2023-08-29T09:40:39.764Z,476.0000
2023-08-29T09:41:28.505Z,475.0000
2023-08-29T09:42:30.738Z,475.0000
2023-08-29T09:43:32.999Z,474.0000
2023-08-29T09:44:35.158Z,475.0000
2023-08-29T09:45:37.349Z,478.0000
2023-08-29T09:46:37.424Z,477.0000
2023-08-29T09:47:39.610Z,475.0000
2023-08-29T09:48:41.821Z,474.0000
2023-08-29T09:49:43.988Z,473.0000
2023-08-29T09:50:46.171Z,474.0000
2023-08-29T09:51:48.386Z,476.0000
2023-08-29T09:52:50.624Z,470.0000
2023-08-29T09:53:52.886Z,470.0000
2023-08-29T09:54:55.077Z,471.0000
2023-08-29T09:55:57.331Z,471.0000
2023-08-29T09:56:59.608Z,469.0000
2023-08-29T09:58:01.924Z,465.0000
2023-08-29T09:59:04.234Z,466.0000
2023-08-29T10:00:06.398Z,462.0000
2023-08-29T10:01:08.757Z,467.0000
2023-08-29T10:02:10.971Z,465.0000
2023-08-29T10:03:13.229Z,467.0000
2023-08-29T10:04:15.469Z,464.0000
2023-08-29T10:05:17.696Z,463.0000
2023-08-29T10:06:19.934Z,461.0000
2023-08-29T10:07:22.200Z,464.0000
2023-08-29T10:08:22.293Z,466.0000
2023-08-29T10:09:24.584Z,466.0000
2023-08-29T10:10:26.795Z,465.0000
2023-08-29T10:11:32.492Z,463.0000
2023-08-29T10:12:31.192Z,461.0000
2023-08-29T10:13:33.472Z,461.0000
2023-08-29T10:14:35.685Z,463.0000
2023-08-29T10:15:39.132Z,463.0000
2023-08-29T10:16:40.169Z,462.0000
2023-08-29T10:17:42.384Z,458.0000
2023-08-29T10:18:44.492Z,460.0000
2023-08-29T10:19:44.605Z,459.0000
2023-08-29T10:20:46.827Z,457.0000
2023-08-29T10:21:49.003Z,461.0000
2023-08-29T10:22:51.205Z,459.0000
2023-08-29T10:23:53.422Z,463.0000
2023-08-29T10:24:55.671Z,466.0000
2023-08-29T10:25:57.839Z,465.0000
2023-08-29T10:27:00.033Z,454.0000
2023-08-29T10:28:02.234Z,455.0000
2023-08-29T10:29:04.437Z,455.0000
2023-08-29T10:30:06.734Z,456.0000
2023-08-29T10:31:08.964Z,457.0000
2023-08-29T10:32:11.178Z,459.0000
2023-08-29T10:33:11.341Z,459.0000
2023-08-29T10:34:13.515Z,461.0000
2023-08-29T10:35:15.748Z,459.0000
2023-08-29T10:36:17.996Z,461.0000
2023-08-29T10:37:20.234Z,462.0000
2023-08-29T10:38:22.495Z,462.0000
2023-08-29T10:39:24.735Z,465.0000
2023-08-29T10:40:27.009Z,466.0000
2023-08-29T10:41:29.226Z,468.0000
2023-08-29T10:42:31.470Z,467.0000
2023-08-29T10:43:31.575Z,469.0000
2023-08-29T10:44:33.840Z,472.0000
2023-08-29T10:45:36.099Z,472.0000
2023-08-29T10:46:38.338Z,476.0000
2023-08-29T10:47:40.629Z,474.0000
2023-08-29T10:48:42.853Z,477.0000
2023-08-29T10:49:45.118Z,479.0000
2023-08-29T10:50:47.311Z,483.0000
2023-08-29T10:51:49.542Z,486.0000
2023-08-29T10:52:51.781Z,490.0000
2023-08-29T10:53:51.827Z,491.0000
2023-08-29T10:54:54.071Z,489.0000
2023-08-29T10:55:56.350Z,493.0000
2023-08-29T10:56:58.612Z,494.0000
2023-08-29T10:58:00.872Z,500.0000
2023-08-29T10:59:03.133Z,496.0000
2023-08-29T11:00:04.271Z,498.0000
2023-08-29T11:01:06.746Z,500.0000
2023-08-29T11:02:07.770Z,504.0000
2023-08-29T11:03:07.985Z,504.0000
2023-08-29T11:04:10.230Z,510.0000
2023-08-29T11:05:12.418Z,512.0000
2023-08-29T11:06:14.750Z,511.0000
2023-08-29T11:07:16.851Z,510.0000
2023-08-29T11:08:17.944Z,514.0000
2023-08-29T11:09:19.158Z,509.0000
2023-08-29T11:10:21.442Z,513.0000
2023-08-29T11:11:23.576Z,508.0000
2023-08-29T11:12:25.755Z,512.0000
2023-08-29T11:13:25.860Z,513.0000
2023-08-29T11:14:28.114Z,515.0000
2023-08-29T11:15:30.381Z,514.0000
2023-08-29T11:16:32.789Z,520.0000
2023-08-29T11:17:34.910Z,521.0000
2023-08-29T11:18:37.164Z,519.0000
2023-08-29T11:19:39.533Z,517.0000
2023-08-29T11:20:41.628Z,517.0000
2023-08-29T11:21:43.884Z,519.0000
2023-08-29T11:22:46.113Z,521.0000
2023-08-29T11:23:46.224Z,525.0000
2023-08-29T11:24:48.437Z,528.0000
2023-08-29T11:25:50.620Z,530.0000
2023-08-29T11:26:52.857Z,530.0000
2023-08-29T11:27:55.058Z,531.0000
2023-08-29T11:28:57.253Z,533.0000
2023-08-29T11:30:16.471Z,531.0000
2023-08-29T11:30:59.613Z,530.0000
2023-08-29T11:32:01.870Z,531.0000
2023-08-29T11:33:04.110Z,529.0000
2023-08-29T11:34:06.350Z,529.0000
2023-08-29T11:36:22.840Z,531.0000
2023-08-29T11:36:40.919Z,527.0000
2023-08-29T11:37:44.849Z,528.0000
2023-08-29T11:38:45.128Z,527.0000
2023-08-29T11:39:47.231Z,530.0000
2023-08-29T11:41:08.977Z,534.0000
2023-08-29T11:42:08.490Z,532.0000
2023-08-29T11:43:31.996Z,535.0000
2023-08-29T11:44:30.810Z,533.0000
2023-08-29T11:45:44.709Z,534.0000
2023-08-29T11:46:00.727Z,536.0000
2023-08-29T11:47:02.477Z,536.0000
2023-08-29T11:48:05.990Z,537.0000
2023-08-29T11:49:06.929Z,538.0000
2023-08-29T11:50:09.162Z,542.0000
2023-08-29T11:51:11.364Z,547.0000
2023-08-29T11:52:13.581Z,535.0000
2023-08-29T11:53:15.719Z,534.0000
2023-08-29T11:54:17.887Z,538.0000
2023-08-29T11:55:20.031Z,535.0000
2023-08-29T11:56:22.187Z,535.0000
2023-08-29T11:57:24.360Z,543.0000
2023-08-29T11:58:26.539Z,528.0000
2023-08-29T11:59:28.681Z,529.0000
2023-08-29T12:00:30.840Z,532.0000
2023-08-29T12:01:33.022Z,533.0000
2023-08-29T12:02:35.194Z,531.0000
2023-08-29T12:03:37.465Z,529.0000
2023-08-29T12:04:39.532Z,527.0000
2023-08-29T12:05:39.592Z,526.0000
2023-08-29T12:06:41.798Z,526.0000
2023-08-29T12:07:44.085Z,527.0000
2023-08-29T12:08:46.270Z,529.0000
2023-08-29T12:09:48.442Z,530.0000
2023-08-29T12:10:50.583Z,535.0000